sensor_id;sensor_type;location;lat;lon;timestamp;pressure;altitude;pressure_sealevel;temperature;humidity
74893;BME280;63446;56.272;43.922;2023-05-09T00:01:11;102251.97;;;4.51;61.79
74893;BME280;63446;56.272;43.922;2023-05-09T00:03:38;102251.31;;;4.49;61.80
74893;BME280;63446;56.272;43.922;2023-05-09T00:06:04;102255.75;;;4.48;61.97
74893;BME280;63446;56.272;43.922;2023-05-09T00:08:32;102257.91;;;4.45;61.96
74893;BME280;63446;56.272;43.922;2023-05-09T00:10:57;102260.72;;;4.43;61.87
74893;BME280;63446;56.272;43.922;2023-05-09T00:13:24;102261.72;;;4.42;61.95
74893;BME280;63446;56.272;43.922;2023-05-09T00:15:50;102256.03;;;4.38;61.97
74893;BME280;63446;56.272;43.922;2023-05-09T00:18:22;102253.78;;;4.35;62.21
74893;BME280;63446;56.272;43.922;2023-05-09T00:20:49;102251.31;;;4.34;62.22
74893;BME280;63446;56.272;43.922;2023-05-09T00:23:15;102257.56;;;4.33;62.18
74893;BME280;63446;56.272;43.922;2023-05-09T00:25:42;102253.47;;;4.30;62.31
74893;BME280;63446;56.272;43.922;2023-05-09T00:28:08;102262.53;;;4.28;62.42
74893;BME280;63446;56.272;43.922;2023-05-09T00:30:34;102252.41;;;4.25;62.29
74893;BME280;63446;56.272;43.922;2023-05-09T00:33:00;102260.44;;;4.23;62.34
74893;BME280;63446;56.272;43.922;2023-05-09T00:35:27;102259.81;;;4.21;62.35
74893;BME280;63446;56.272;43.922;2023-05-09T00:37:53;102266.03;;;4.20;62.53
74893;BME280;63446;56.272;43.922;2023-05-09T00:40:19;102259.19;;;4.19;62.51
74893;BME280;63446;56.272;43.922;2023-05-09T00:42:46;102261.97;;;4.18;62.62
74893;BME280;63446;56.272;43.922;2023-05-09T00:45:12;102262.16;;;4.16;62.61
74893;BME280;63446;56.272;43.922;2023-05-09T00:47:38;102258.72;;;4.15;62.53
74893;BME280;63446;56.272;43.922;2023-05-09T00:50:04;102260.69;;;4.13;62.68
74893;BME280;63446;56.272;43.922;2023-05-09T00:52:32;102259.69;;;4.14;62.80
74893;BME280;63446;56.272;43.922;2023-05-09T00:54:59;102253.66;;;4.14;62.75
74893;BME280;63446;56.272;43.922;2023-05-09T00:57:27;102258.91;;;4.14;62.66
74893;BME280;63446;56.272;43.922;2023-05-09T00:59:53;102262.16;;;4.16;62.76
74893;BME280;63446;56.272;43.922;2023-05-09T01:02:19;102268.19;;;4.16;62.62
74893;BME280;63446;56.272;43.922;2023-05-09T01:04:46;102263.78;;;4.17;62.71
74893;BME280;63446;56.272;43.922;2023-05-09T01:10:10;102268.47;;;4.22;62.67
74893;BME280;63446;56.272;43.922;2023-05-09T01:12:48;102269.72;;;4.26;62.47
74893;BME280;63446;56.272;43.922;2023-05-09T01:15:30;102271.19;;;4.28;62.47
74893;BME280;63446;56.272;43.922;2023-05-09T01:18:18;102271.44;;;4.33;62.45
74893;BME280;63446;56.272;43.922;2023-05-09T01:20:54;102274.34;;;4.38;62.23
74893;BME280;63446;56.272;43.922;2023-05-09T01:31:57;102271.81;;;4.60;61.91
74893;BME280;63446;56.272;43.922;2023-05-09T01:34:25;102285.59;;;4.69;62.05
74893;BME280;63446;56.272;43.922;2023-05-09T01:36:58;102276.03;;;4.76;61.77
74893;BME280;63446;56.272;43.922;2023-05-09T01:39:26;102281.16;;;4.84;61.69
74893;BME280;63446;56.272;43.922;2023-05-09T01:41:55;102281.91;;;4.93;61.62
74893;BME280;63446;56.272;43.922;2023-05-09T01:44:24;102279.59;;;5.04;61.58
74893;BME280;63446;56.272;43.922;2023-05-09T01:46:51;102278.94;;;5.17;61.44
74893;BME280;63446;56.272;43.922;2023-05-09T01:49:19;102271.13;;;5.88;60.14
74893;BME280;63446;56.272;43.922;2023-05-09T01:51:46;102286.00;;;7.66;57.97
74893;BME280;63446;56.272;43.922;2023-05-09T01:54:13;102273.88;;;9.71;54.37
74893;BME280;63446;56.272;43.922;2023-05-09T01:56:41;102276.09;;;11.87;50.50
74893;BME280;63446;56.272;43.922;2023-05-09T01:59:08;102273.91;;;13.96;46.82
74893;BME280;63446;56.272;43.922;2023-05-09T02:01:42;102276.19;;;15.93;43.68
74893;BME280;63446;56.272;43.922;2023-05-09T02:04:08;102278.50;;;17.66;41.09
74893;BME280;63446;56.272;43.922;2023-05-09T02:06:35;102269.78;;;19.24;38.54
74893;BME280;63446;56.272;43.922;2023-05-09T02:09:01;102274.63;;;20.71;36.55
74893;BME280;63446;56.272;43.922;2023-05-09T02:11:27;102280.81;;;22.03;34.88
74893;BME280;63446;56.272;43.922;2023-05-09T02:13:53;102272.25;;;23.23;32.88
74893;BME280;63446;56.272;43.922;2023-05-09T02:16:19;102286.09;;;24.41;31.54
74893;BME280;63446;56.272;43.922;2023-05-09T02:18:46;102283.16;;;25.50;30.13
74893;BME280;63446;56.272;43.922;2023-05-09T02:21:12;102278.78;;;26.56;29.12
74893;BME280;63446;56.272;43.922;2023-05-09T02:23:38;102281.50;;;27.55;27.71
74893;BME280;63446;56.272;43.922;2023-05-09T02:26:04;102284.88;;;28.50;26.59
74893;BME280;63446;56.272;43.922;2023-05-09T02:28:30;102280.63;;;29.37;25.61
74893;BME280;63446;56.272;43.922;2023-05-09T02:30:57;102282.38;;;30.28;24.71
74893;BME280;63446;56.272;43.922;2023-05-09T02:33:25;102280.53;;;31.13;23.83
74893;BME280;63446;56.272;43.922;2023-05-09T02:35:51;102279.53;;;31.94;23.19
74893;BME280;63446;56.272;43.922;2023-05-09T02:38:18;102285.59;;;32.70;22.54
74893;BME280;63446;56.272;43.922;2023-05-09T02:40:46;102283.59;;;33.45;21.57
74893;BME280;63446;56.272;43.922;2023-05-09T02:43:12;102289.97;;;34.19;21.15
74893;BME280;63446;56.272;43.922;2023-05-09T02:45:40;102286.66;;;34.86;20.57
74893;BME280;63446;56.272;43.922;2023-05-09T02:48:06;102277.31;;;35.52;20.02
74893;BME280;63446;56.272;43.922;2023-05-09T02:50:32;102286.59;;;36.18;19.69
74893;BME280;63446;56.272;43.922;2023-05-09T02:52:58;102290.22;;;36.78;19.17
74893;BME280;63446;56.272;43.922;2023-05-09T02:55:24;102294.94;;;37.37;18.87
74893;BME280;63446;56.272;43.922;2023-05-09T02:57:50;102289.25;;;37.96;18.31
74893;BME280;63446;56.272;43.922;2023-05-09T03:00:16;102290.88;;;38.55;17.85
74893;BME280;63446;56.272;43.922;2023-05-09T03:02:43;102288.81;;;39.13;17.53
74893;BME280;63446;56.272;43.922;2023-05-09T03:05:15;102291.03;;;39.69;17.25
74893;BME280;63446;56.272;43.922;2023-05-09T03:07:41;102290.81;;;40.19;16.85
74893;BME280;63446;56.272;43.922;2023-05-09T03:10:07;102288.09;;;40.72;16.34
74893;BME280;63446;56.272;43.922;2023-05-09T03:12:34;102289.19;;;41.23;16.03
74893;BME280;63446;56.272;43.922;2023-05-09T03:15:00;102288.88;;;41.80;15.67
74893;BME280;63446;56.272;43.922;2023-05-09T03:17:30;102292.13;;;42.33;15.30
74893;BME280;63446;56.272;43.922;2023-05-09T03:19:57;102297.69;;;42.84;14.97
74893;BME280;63446;56.272;43.922;2023-05-09T03:22:22;102296.13;;;43.30;14.39
74893;BME280;63446;56.272;43.922;2023-05-09T03:24:54;102299.41;;;43.73;14.01
74893;BME280;63446;56.272;43.922;2023-05-09T03:27:21;102285.59;;;44.13;13.94
74893;BME280;63446;56.272;43.922;2023-05-09T03:29:48;102287.47;;;44.56;13.76
74893;BME280;63446;56.272;43.922;2023-05-09T03:32:16;102281.38;;;45.08;13.29
74893;BME280;63446;56.272;43.922;2023-05-09T03:34:42;102275.63;;;45.57;13.24
74893;BME280;63446;56.272;43.922;2023-05-09T03:37:08;102287.94;;;46.02;13.14
74893;BME280;63446;56.272;43.922;2023-05-09T03:39:37;102280.59;;;46.47;12.54
74893;BME280;63446;56.272;43.922;2023-05-09T03:42:03;102272.09;;;46.89;12.55
74893;BME280;63446;56.272;43.922;2023-05-09T03:44:30;102278.69;;;47.25;12.15
74893;BME280;63446;56.272;43.922;2023-05-09T03:46:56;102275.13;;;47.54;11.95
74893;BME280;63446;56.272;43.922;2023-05-09T03:49:24;102274.38;;;47.83;12.17
74893;BME280;63446;56.272;43.922;2023-05-09T03:51:52;102275.59;;;48.12;11.94
74893;BME280;63446;56.272;43.922;2023-05-09T03:54:18;102278.13;;;48.45;11.96
74893;BME280;63446;56.272;43.922;2023-05-09T03:56:45;102270.22;;;48.84;11.74
74893;BME280;63446;56.272;43.922;2023-05-09T03:59:11;102269.88;;;49.23;11.28
74893;BME280;63446;56.272;43.922;2023-05-09T04:01:38;102278.38;;;49.55;11.26
74893;BME280;63446;56.272;43.922;2023-05-09T04:04:04;102279.94;;;49.88;11.15
74893;BME280;63446;56.272;43.922;2023-05-09T04:06:34;102278.13;;;50.22;10.84
74893;BME280;63446;56.272;43.922;2023-05-09T04:09:02;102276.28;;;50.56;10.78
74893;BME280;63446;56.272;43.922;2023-05-09T04:11:29;102267.66;;;50.88;10.53
74893;BME280;63446;56.272;43.922;2023-05-09T04:13:56;102273.59;;;51.12;10.49
74893;BME280;63446;56.272;43.922;2023-05-09T04:16:29;102280.59;;;51.34;10.25
74893;BME280;63446;56.272;43.922;2023-05-09T04:18:55;102284.94;;;51.51;10.09
74893;BME280;63446;56.272;43.922;2023-05-09T04:21:21;102274.72;;;51.71;9.97
74893;BME280;63446;56.272;43.922;2023-05-09T04:23:49;102277.50;;;51.93;9.92
74893;BME280;63446;56.272;43.922;2023-05-09T04:26:17;102276.66;;;52.15;9.82
74893;BME280;63446;56.272;43.922;2023-05-09T04:28:46;102267.91;;;52.36;9.30
74893;BME280;63446;56.272;43.922;2023-05-09T04:31:14;102273.22;;;52.56;9.61
74893;BME280;63446;56.272;43.922;2023-05-09T04:33:43;102262.88;;;52.76;9.53
74893;BME280;63446;56.272;43.922;2023-05-09T04:36:09;102253.81;;;52.94;9.49
74893;BME280;63446;56.272;43.922;2023-05-09T04:38:35;102263.16;;;53.13;9.50
74893;BME280;63446;56.272;43.922;2023-05-09T04:41:02;102262.00;;;53.28;9.38
74893;BME280;63446;56.272;43.922;2023-05-09T04:43:28;102256.56;;;53.35;9.13
74893;BME280;63446;56.272;43.922;2023-05-09T04:45:55;102252.88;;;53.46;9.29
74893;BME280;63446;56.272;43.922;2023-05-09T04:48:21;102256.84;;;53.62;8.96
74893;BME280;63446;56.272;43.922;2023-05-09T04:50:49;102262.56;;;53.81;8.77
74893;BME280;63446;56.272;43.922;2023-05-09T04:53:14;102253.41;;;53.99;8.88
74893;BME280;63446;56.272;43.922;2023-05-09T04:55:41;102252.97;;;54.14;9.07
74893;BME280;63446;56.272;43.922;2023-05-09T04:58:08;102261.25;;;54.31;8.80
74893;BME280;63446;56.272;43.922;2023-05-09T05:00:34;102246.19;;;54.42;8.52
74893;BME280;63446;56.272;43.922;2023-05-09T05:03:01;102246.09;;;54.47;8.98
74893;BME280;63446;56.272;43.922;2023-05-09T05:05:28;102252.44;;;54.59;8.39
74893;BME280;63446;56.272;43.922;2023-05-09T05:07:54;102244.84;;;54.67;8.65
74893;BME280;63446;56.272;43.922;2023-05-09T05:10:25;102242.78;;;54.68;8.65
74893;BME280;63446;56.272;43.922;2023-05-09T05:12:58;102243.13;;;54.77;8.30
74893;BME280;63446;56.272;43.922;2023-05-09T05:15:24;102241.16;;;54.91;8.74
74893;BME280;63446;56.272;43.922;2023-05-09T05:17:52;102239.22;;;54.99;8.59
74893;BME280;63446;56.272;43.922;2023-05-09T05:20:21;102236.41;;;55.13;8.09
74893;BME280;63446;56.272;43.922;2023-05-09T05:22:48;102231.56;;;55.26;8.39
74893;BME280;63446;56.272;43.922;2023-05-09T05:25:14;102235.19;;;55.40;8.02
74893;BME280;63446;56.272;43.922;2023-05-09T05:27:46;102228.25;;;55.54;8.20
74893;BME280;63446;56.272;43.922;2023-05-09T05:30:13;102232.94;;;55.65;7.79
74893;BME280;63446;56.272;43.922;2023-05-09T05:32:41;102243.72;;;55.80;7.78
74893;BME280;63446;56.272;43.922;2023-05-09T05:35:09;102232.66;;;55.82;8.06
74893;BME280;63446;56.272;43.922;2023-05-09T05:37:41;102230.44;;;55.88;8.25
74893;BME280;63446;56.272;43.922;2023-05-09T05:40:10;102238.06;;;55.93;8.05
74893;BME280;63446;56.272;43.922;2023-05-09T05:42:38;102238.53;;;55.84;7.91
74893;BME280;63446;56.272;43.922;2023-05-09T05:45:06;102232.38;;;55.80;8.35
74893;BME280;63446;56.272;43.922;2023-05-09T05:47:36;102235.34;;;55.88;8.51
74893;BME280;63446;56.272;43.922;2023-05-09T05:50:04;102227.94;;;55.98;8.30
74893;BME280;63446;56.272;43.922;2023-05-09T05:52:31;102225.63;;;55.96;8.02
74893;BME280;63446;56.272;43.922;2023-05-09T05:54:59;102229.88;;;55.76;8.10
74893;BME280;63446;56.272;43.922;2023-05-09T05:57:25;102225.31;;;55.15;8.13
74893;BME280;63446;56.272;43.922;2023-05-09T05:59:51;102216.88;;;53.16;8.69
74893;BME280;63446;56.272;43.922;2023-05-09T06:02:18;102207.63;;;50.37;9.36
74893;BME280;63446;56.272;43.922;2023-05-09T06:04:45;102208.81;;;47.45;9.90
74893;BME280;63446;56.272;43.922;2023-05-09T06:07:11;102202.09;;;44.59;11.06
74893;BME280;63446;56.272;43.922;2023-05-09T06:09:38;102203.31;;;42.04;12.22
74893;BME280;63446;56.272;43.922;2023-05-09T06:12:04;102204.97;;;39.83;12.88
74893;BME280;63446;56.272;43.922;2023-05-09T06:14:31;102203.00;;;37.89;13.73
74893;BME280;63446;56.272;43.922;2023-05-09T06:16:58;102194.25;;;36.14;14.65
74893;BME280;63446;56.272;43.922;2023-05-09T06:19:24;102197.97;;;34.57;15.65
74893;BME280;63446;56.272;43.922;2023-05-09T06:21:49;102193.31;;;33.12;15.45
74893;BME280;63446;56.272;43.922;2023-05-09T06:24:15;102187.78;;;31.70;15.88
74893;BME280;63446;56.272;43.922;2023-05-09T06:26:41;102192.28;;;30.44;16.65
74893;BME280;63446;56.272;43.922;2023-05-09T06:29:07;102189.00;;;29.29;17.71
74893;BME280;63446;56.272;43.922;2023-05-09T06:31:33;102194.41;;;28.37;18.14
74893;BME280;63446;56.272;43.922;2023-05-09T06:34:04;102202.31;;;27.53;18.95
74893;BME280;63446;56.272;43.922;2023-05-09T06:36:30;102191.66;;;26.78;19.02
74893;BME280;63446;56.272;43.922;2023-05-09T06:38:57;102195.69;;;26.18;18.79
74893;BME280;63446;56.272;43.922;2023-05-09T06:41:23;102193.97;;;25.54;18.74
74893;BME280;63446;56.272;43.922;2023-05-09T06:43:49;102186.53;;;24.95;18.78
74893;BME280;63446;56.272;43.922;2023-05-09T06:46:15;102196.91;;;24.50;19.06
74893;BME280;63446;56.272;43.922;2023-05-09T06:48:41;102187.81;;;24.11;19.44
74893;BME280;63446;56.272;43.922;2023-05-09T06:51:07;102183.22;;;23.63;20.01
74893;BME280;63446;56.272;43.922;2023-05-09T06:53:34;102187.66;;;23.19;20.33
74893;BME280;63446;56.272;43.922;2023-05-09T06:56:00;102191.03;;;23.02;20.14
74893;BME280;63446;56.272;43.922;2023-05-09T06:58:27;102185.53;;;22.85;20.16
74893;BME280;63446;56.272;43.922;2023-05-09T07:00:53;102181.50;;;22.74;20.70
74893;BME280;63446;56.272;43.922;2023-05-09T07:03:18;102177.50;;;22.71;20.51
74893;BME280;63446;56.272;43.922;2023-05-09T07:05:45;102178.63;;;22.70;20.82
74893;BME280;63446;56.272;43.922;2023-05-09T07:08:10;102181.53;;;22.60;20.68
74893;BME280;63446;56.272;43.922;2023-05-09T07:10:37;102187.00;;;22.46;21.07
74893;BME280;63446;56.272;43.922;2023-05-09T07:13:03;102176.31;;;22.18;21.21
74893;BME280;63446;56.272;43.922;2023-05-09T07:15:29;102176.13;;;21.87;21.36
74893;BME280;63446;56.272;43.922;2023-05-09T07:17:55;102174.53;;;21.59;21.54
74893;BME280;63446;56.272;43.922;2023-05-09T07:20:21;102177.75;;;21.33;21.68
74893;BME280;63446;56.272;43.922;2023-05-09T07:22:47;102175.03;;;21.01;21.28
74893;BME280;63446;56.272;43.922;2023-05-09T07:25:14;102168.94;;;20.62;21.03
74893;BME280;63446;56.272;43.922;2023-05-09T07:27:40;102160.94;;;20.19;20.56
74893;BME280;63446;56.272;43.922;2023-05-09T07:30:06;102169.47;;;19.84;20.27
74893;BME280;63446;56.272;43.922;2023-05-09T07:32:34;102170.44;;;19.45;20.75
74893;BME280;63446;56.272;43.922;2023-05-09T07:35:00;102165.88;;;19.16;20.93
74893;BME280;63446;56.272;43.922;2023-05-09T07:37:31;102167.94;;;18.95;21.25
74893;BME280;63446;56.272;43.922;2023-05-09T07:39:59;102167.47;;;18.83;21.34
74893;BME280;63446;56.272;43.922;2023-05-09T07:42:25;102163.50;;;18.81;21.87
74893;BME280;63446;56.272;43.922;2023-05-09T07:44:51;102155.41;;;18.86;22.22
74893;BME280;63446;56.272;43.922;2023-05-09T07:47:17;102154.78;;;18.99;22.43
74893;BME280;63446;56.272;43.922;2023-05-09T07:49:43;102161.78;;;19.24;22.26
74893;BME280;63446;56.272;43.922;2023-05-09T07:52:11;102155.41;;;19.44;22.21
74893;BME280;63446;56.272;43.922;2023-05-09T07:54:38;102153.94;;;19.57;22.01
74893;BME280;63446;56.272;43.922;2023-05-09T07:57:04;102150.41;;;19.61;21.97
74893;BME280;63446;56.272;43.922;2023-05-09T07:59:30;102154.44;;;19.59;22.08
74893;BME280;63446;56.272;43.922;2023-05-09T08:01:56;102152.81;;;19.63;22.16
74893;BME280;63446;56.272;43.922;2023-05-09T08:04:22;102149.34;;;19.62;22.06
74893;BME280;63446;56.272;43.922;2023-05-09T08:06:47;102142.84;;;19.68;22.57
74893;BME280;63446;56.272;43.922;2023-05-09T08:09:13;102153.19;;;19.75;23.06
74893;BME280;63446;56.272;43.922;2023-05-09T08:11:40;102138.75;;;19.95;22.72
74893;BME280;63446;56.272;43.922;2023-05-09T08:14:06;102138.47;;;20.15;22.75
74893;BME280;63446;56.272;43.922;2023-05-09T08:16:32;102135.69;;;20.39;23.13
74893;BME280;63446;56.272;43.922;2023-05-09T08:18:58;102138.25;;;20.68;23.38
74893;BME280;63446;56.272;43.922;2023-05-09T08:21:23;102126.25;;;20.93;23.05
74893;BME280;63446;56.272;43.922;2023-05-09T08:23:50;102118.31;;;21.16;22.58
74893;BME280;63446;56.272;43.922;2023-05-09T08:26:17;102123.06;;;21.38;22.62
74893;BME280;63446;56.272;43.922;2023-05-09T08:28:44;102119.28;;;21.53;22.56
74893;BME280;63446;56.272;43.922;2023-05-09T08:31:10;102114.75;;;21.62;22.35
74893;BME280;63446;56.272;43.922;2023-05-09T08:33:36;102112.06;;;21.62;21.88
74893;BME280;63446;56.272;43.922;2023-05-09T08:36:02;102114.38;;;21.55;21.54
74893;BME280;63446;56.272;43.922;2023-05-09T08:38:29;102093.31;;;21.29;21.83
74893;BME280;63446;56.272;43.922;2023-05-09T08:41:01;102100.31;;;21.03;21.97
74893;BME280;63446;56.272;43.922;2023-05-09T08:43:28;102098.53;;;20.79;21.92
74893;BME280;63446;56.272;43.922;2023-05-09T08:45:57;102096.44;;;20.43;22.02
74893;BME280;63446;56.272;43.922;2023-05-09T08:48:24;102091.75;;;19.97;22.38
74893;BME280;63446;56.272;43.922;2023-05-09T08:50:50;102087.41;;;19.59;22.71
74893;BME280;63446;56.272;43.922;2023-05-09T08:53:18;102101.09;;;19.33;23.08
74893;BME280;63446;56.272;43.922;2023-05-09T08:55:46;102094.63;;;19.10;23.30
74893;BME280;63446;56.272;43.922;2023-05-09T08:58:12;102092.34;;;18.98;23.36
74893;BME280;63446;56.272;43.922;2023-05-09T09:00:40;102081.13;;;18.96;23.74
74893;BME280;63446;56.272;43.922;2023-05-09T09:03:06;102073.56;;;19.03;23.79
74893;BME280;63446;56.272;43.922;2023-05-09T09:05:36;102075.06;;;19.10;23.42
74893;BME280;63446;56.272;43.922;2023-05-09T09:08:03;102074.84;;;19.06;23.38
74893;BME280;63446;56.272;43.922;2023-05-09T09:10:31;102074.78;;;18.87;23.58
74893;BME280;63446;56.272;43.922;2023-05-09T09:12:58;102072.06;;;18.58;23.86
74893;BME280;63446;56.272;43.922;2023-05-09T09:15:27;102072.00;;;18.34;24.16
74893;BME280;63446;56.272;43.922;2023-05-09T09:17:57;102076.41;;;18.15;24.41
74893;BME280;63446;56.272;43.922;2023-05-09T09:20:26;102076.00;;;17.92;24.38
74893;BME280;63446;56.272;43.922;2023-05-09T09:22:58;102063.22;;;17.79;24.20
74893;BME280;63446;56.272;43.922;2023-05-09T09:25:26;102059.75;;;17.73;24.38
74893;BME280;63446;56.272;43.922;2023-05-09T09:27:52;102057.09;;;17.73;24.31
74893;BME280;63446;56.272;43.922;2023-05-09T09:30:17;102052.28;;;17.75;24.64
74893;BME280;63446;56.272;43.922;2023-05-09T09:32:44;102058.38;;;17.86;24.69
74893;BME280;63446;56.272;43.922;2023-05-09T09:35:10;102045.25;;;17.90;24.40
74893;BME280;63446;56.272;43.922;2023-05-09T09:37:38;102048.72;;;17.90;24.69
74893;BME280;63446;56.272;43.922;2023-05-09T09:40:09;102051.34;;;18.00;24.64
74893;BME280;63446;56.272;43.922;2023-05-09T09:42:44;102052.34;;;18.15;24.46
74893;BME280;63446;56.272;43.922;2023-05-09T09:45:12;102047.72;;;18.20;24.50
74893;BME280;63446;56.272;43.922;2023-05-09T09:47:39;102051.69;;;18.28;24.44
74893;BME280;63446;56.272;43.922;2023-05-09T09:50:14;102044.69;;;18.32;24.59
74893;BME280;63446;56.272;43.922;2023-05-09T09:52:51;102042.03;;;18.32;24.78
74893;BME280;63446;56.272;43.922;2023-05-09T09:55:19;102039.34;;;18.32;24.87
74893;BME280;63446;56.272;43.922;2023-05-09T09:57:46;102037.19;;;18.34;24.79
74893;BME280;63446;56.272;43.922;2023-05-09T10:00:18;102039.28;;;18.42;24.91
74893;BME280;63446;56.272;43.922;2023-05-09T10:02:51;102035.91;;;18.61;24.79
74893;BME280;63446;56.272;43.922;2023-05-09T10:05:23;102035.44;;;18.83;24.50
74893;BME280;63446;56.272;43.922;2023-05-09T10:08:01;102028.47;;;19.11;24.46
74893;BME280;63446;56.272;43.922;2023-05-09T10:10:35;102033.28;;;19.33;23.86
74893;BME280;63446;56.272;43.922;2023-05-09T10:13:05;102029.00;;;19.32;23.74
74893;BME280;63446;56.272;43.922;2023-05-09T10:15:33;102037.00;;;19.13;23.84
74893;BME280;63446;56.272;43.922;2023-05-09T10:17:59;102031.06;;;18.92;23.93
74893;BME280;63446;56.272;43.922;2023-05-09T10:20:29;102035.28;;;18.74;24.15
74893;BME280;63446;56.272;43.922;2023-05-09T10:23:00;102033.00;;;18.57;24.64
74893;BME280;63446;56.272;43.922;2023-05-09T10:25:35;102033.88;;;18.47;24.76
74893;BME280;63446;56.272;43.922;2023-05-09T10:28:10;102021.94;;;18.35;25.09
74893;BME280;63446;56.272;43.922;2023-05-09T10:33:09;102020.72;;;18.17;25.53
74893;BME280;63446;56.272;43.922;2023-05-09T10:35:41;102023.44;;;18.12;25.74
74893;BME280;63446;56.272;43.922;2023-05-09T10:38:09;102024.56;;;18.05;25.41
74893;BME280;63446;56.272;43.922;2023-05-09T10:40:38;102019.19;;;18.11;25.53
74893;BME280;63446;56.272;43.922;2023-05-09T10:43:04;102005.16;;;18.24;25.62
74893;BME280;63446;56.272;43.922;2023-05-09T10:45:33;102003.69;;;18.42;25.25
74893;BME280;63446;56.272;43.922;2023-05-09T10:48:00;102000.81;;;18.62;25.36
74893;BME280;63446;56.272;43.922;2023-05-09T10:50:29;101986.09;;;18.89;24.88
74893;BME280;63446;56.272;43.922;2023-05-09T10:55:47;101985.63;;;19.48;24.12
74893;BME280;63446;56.272;43.922;2023-05-09T10:58:34;101986.88;;;19.75;23.97
74893;BME280;63446;56.272;43.922;2023-05-09T11:01:05;101989.72;;;20.03;23.89
74893;BME280;63446;56.272;43.922;2023-05-09T11:03:54;101991.31;;;20.17;23.67
74893;BME280;63446;56.272;43.922;2023-05-09T11:09:27;101982.06;;;20.42;23.34
74893;BME280;63446;56.272;43.922;2023-05-09T11:14:36;101976.28;;;20.35;23.52
74893;BME280;63446;56.272;43.922;2023-05-09T11:17:08;101972.69;;;20.26;23.67
74893;BME280;63446;56.272;43.922;2023-05-09T11:22:18;101966.22;;;19.75;23.55
74893;BME280;63446;56.272;43.922;2023-05-09T11:24:45;101966.13;;;19.43;24.03
74893;BME280;63446;56.272;43.922;2023-05-09T11:27:22;101971.09;;;19.12;24.25
74893;BME280;63446;56.272;43.922;2023-05-09T11:29:53;101962.84;;;18.84;24.55
74893;BME280;63446;56.272;43.922;2023-05-09T11:32:20;101966.78;;;18.63;24.82
74893;BME280;63446;56.272;43.922;2023-05-09T11:34:48;101960.78;;;18.47;25.16
74893;BME280;63446;56.272;43.922;2023-05-09T11:37:16;101963.56;;;18.37;25.15
74893;BME280;63446;56.272;43.922;2023-05-09T11:39:59;101954.78;;;18.31;24.87
74893;BME280;63446;56.272;43.922;2023-05-09T11:42:30;101960.19;;;18.26;24.74
74893;BME280;63446;56.272;43.922;2023-05-09T11:44:56;101949.53;;;18.21;24.78
74893;BME280;63446;56.272;43.922;2023-05-09T11:47:23;101940.47;;;18.17;24.86
74893;BME280;63446;56.272;43.922;2023-05-09T11:49:50;101934.56;;;18.20;25.05
74893;BME280;63446;56.272;43.922;2023-05-09T11:52:19;101936.94;;;18.21;25.09
74893;BME280;63446;56.272;43.922;2023-05-09T11:54:46;101936.69;;;18.23;25.04
74893;BME280;63446;56.272;43.922;2023-05-09T11:57:14;101932.34;;;18.27;25.15
74893;BME280;63446;56.272;43.922;2023-05-09T11:59:43;101937.38;;;18.34;25.25
74893;BME280;63446;56.272;43.922;2023-05-09T12:02:11;101933.00;;;18.43;25.25
74893;BME280;63446;56.272;43.922;2023-05-09T12:04:37;101932.09;;;18.52;24.99
74893;BME280;63446;56.272;43.922;2023-05-09T12:07:03;101922.38;;;18.62;24.58
74893;BME280;63446;56.272;43.922;2023-05-09T12:09:33;101905.66;;;18.70;24.54
74893;BME280;63446;56.272;43.922;2023-05-09T12:12:00;101916.06;;;18.76;24.50
74893;BME280;63446;56.272;43.922;2023-05-09T12:14:31;101919.47;;;18.82;24.53
74893;BME280;63446;56.272;43.922;2023-05-09T12:16:57;101907.91;;;18.87;24.47
74893;BME280;63446;56.272;43.922;2023-05-09T12:19:24;101905.66;;;18.94;24.62
74893;BME280;63446;56.272;43.922;2023-05-09T12:21:58;101904.97;;;19.07;24.70
74893;BME280;63446;56.272;43.922;2023-05-09T12:24:25;101907.81;;;19.16;24.61
74893;BME280;63446;56.272;43.922;2023-05-09T12:26:52;101910.97;;;19.18;24.60
74893;BME280;63446;56.272;43.922;2023-05-09T12:29:20;101908.38;;;19.13;24.57
74893;BME280;63446;56.272;43.922;2023-05-09T12:31:46;101903.66;;;19.05;24.79
74893;BME280;63446;56.272;43.922;2023-05-09T12:34:13;101909.78;;;18.86;25.17
74893;BME280;63446;56.272;43.922;2023-05-09T12:36:42;101902.16;;;18.74;25.48
74893;BME280;63446;56.272;43.922;2023-05-09T12:39:08;101900.38;;;18.65;25.56
74893;BME280;63446;56.272;43.922;2023-05-09T12:41:48;101903.16;;;18.54;25.66
74893;BME280;63446;56.272;43.922;2023-05-09T12:44:26;101902.47;;;18.44;25.88
74893;BME280;63446;56.272;43.922;2023-05-09T12:46:56;101904.81;;;18.26;26.01
74893;BME280;63446;56.272;43.922;2023-05-09T12:49:23;101893.22;;;18.07;25.98
74893;BME280;63446;56.272;43.922;2023-05-09T12:51:50;101899.28;;;17.84;25.95
74893;BME280;63446;56.272;43.922;2023-05-09T12:54:26;101894.66;;;17.55;26.10
74893;BME280;63446;56.272;43.922;2023-05-09T12:56:53;101891.03;;;17.36;26.24
74893;BME280;63446;56.272;43.922;2023-05-09T12:59:25;101882.09;;;17.11;26.32
74893;BME280;63446;56.272;43.922;2023-05-09T13:01:57;101876.03;;;16.90;26.45
74893;BME280;63446;56.272;43.922;2023-05-09T13:04:24;101871.06;;;16.73;26.43
74893;BME280;63446;56.272;43.922;2023-05-09T13:06:55;101871.59;;;16.60;26.53
74893;BME280;63446;56.272;43.922;2023-05-09T13:09:25;101862.84;;;16.49;26.59
74893;BME280;63446;56.272;43.922;2023-05-09T13:11:52;101870.31;;;16.42;26.86